»·PEaware :: NKS421 KSNA-KLAS

NKS421 :: KSNA-KLAS

FLIGHT INFORMATION

Flight Status: Arrived
Operator:
Spirit Airlines
More flights by this operator :: More flights under this callsign
Pilot: Anonymous 12254 (12254)
Aircraft: AIRBUS A320
(A320)
More flights by this aircraft type
Origin: KSNA John Wayne-Orange Co
United States
Destination: KLAS McCarran Intl
United States
More flights between these airports :: More routes between these airports
Route: +FINZZ2 MISEN KEPEC6
File this flight plan on PilotEdge
Remarks:
Altitude:
(Current/Filed)
27,000ft
Speed:
(Current/Filed)
450kts
Departed: 26-Jun-19 07:41 PM
Arrived: 26-Jun-19 08:31 PM
Distance/Time
Traveled:
197nm/0:49
Distance/Time
To Go:
Arrived

Flight Plot

Page will automatically refresh every two minutes.

Flight plan parsing failed; only flown route is shown


Map Options




Map Legend


Flown Route
Filed Route
Departure Airport
Arrival Airport
Navaid (VOR, NDB)
Fix

Horizontal Profiles

Position Reports

Time Latitude Longitude Heading Altitude Ground
Speed
26-Jun-19 19:26 33.675709 -117.864614 118 65ft 0kts
26-Jun-19 19:27 33.675709 -117.864614 118 65ft 0kts
26-Jun-19 19:28 33.675709 -117.864614 118 65ft 0kts
26-Jun-19 19:29 33.675709 -117.864614 118 65ft 0kts
26-Jun-19 19:30 33.675709 -117.864614 118 65ft 0kts
26-Jun-19 19:31 33.675709 -117.864614 118 65ft 0kts
26-Jun-19 19:32 33.675709 -117.864614 118 65ft 0kts
26-Jun-19 19:33 33.675709 -117.864614 118 65ft 0kts
26-Jun-19 19:34 33.675821 -117.864863 118 65ft 5kts
26-Jun-19 19:35 33.675936 -117.865362 29 65ft 0kts
26-Jun-19 19:36 33.676183 -117.865191 29 65ft 7kts
26-Jun-19 19:37 33.678824 -117.863555 25 65ft 15kts
26-Jun-19 19:38 33.680476 -117.862855 296 65ft 0kts
26-Jun-19 19:39 33.681320 -117.865299 240 65ft 12kts
26-Jun-19 19:40 33.655801 -117.880936 208 1001ft 175kts
26-Jun-19 19:41 33.598638 -117.895974 187 2896ft 246kts
26-Jun-19 19:42 33.538267 -117.937126 223 4831ft 263kts
26-Jun-19 19:43 33.497275 -118.005679 273 6571ft 270kts
26-Jun-19 19:44 33.540090 -118.077739 310 8959ft 284kts
26-Jun-19 19:45 33.606397 -118.117358 12 11367ft 318kts
26-Jun-19 19:46 33.681369 -118.075912 24 13662ft 341kts
26-Jun-19 19:47 33.762503 -118.028714 24 15639ft 366kts
26-Jun-19 19:48 33.847399 -117.979205 24 17469ft 381kts
26-Jun-19 19:49 33.936154 -117.917360 36 19390ft 395kts
26-Jun-19 19:50 34.016881 -117.843582 35 21226ft 403kts
26-Jun-19 19:51 34.098345 -117.764008 48 23080ft 408kts
26-Jun-19 19:52 34.156530 -117.677828 49 24616ft 411kts
26-Jun-19 19:53 34.223706 -117.578013 49 26172ft 417kts
26-Jun-19 19:54 34.294299 -117.472811 49 26972ft 443kts
26-Jun-19 19:55 34.368185 -117.362311 49 26954ft 480kts
26-Jun-19 19:56 34.441984 -117.251756 50 26947ft 481kts
26-Jun-19 19:57 34.523000 -117.129944 50 26889ft 482kts
26-Jun-19 19:58 34.605821 -117.008291 48 26865ft 479kts
26-Jun-19 19:59 34.690802 -116.884385 48 26865ft 475kts
26-Jun-19 20:00 34.774387 -116.761953 48 26865ft 475kts
26-Jun-19 20:01 34.862140 -116.637722 39 26898ft 476kts
26-Jun-19 20:02 34.974105 -116.528445 36 26405ft 481kts
26-Jun-19 20:03 35.088583 -116.417177 37 25280ft 481kts
26-Jun-19 20:04 35.193344 -116.314663 38 24035ft 469kts
26-Jun-19 20:05 35.297375 -116.213180 38 23784ft 465kts
26-Jun-19 20:06 35.385843 -116.108610 54 22399ft 433kts
26-Jun-19 20:07 35.458840 -115.997509 51 20947ft 410kts
26-Jun-19 20:08 35.529575 -115.893858 51 19487ft 390kts
26-Jun-19 20:09 35.596885 -115.795365 52 17399ft 368kts
26-Jun-19 20:10 35.662202 -115.699475 52 13669ft 374kts
26-Jun-19 20:11 35.727278 -115.613789 48 12987ft 331kts
26-Jun-19 20:12 35.807832 -115.572081 1 12985ft 333kts
26-Jun-19 20:13 35.896532 -115.567589 1 12964ft 327kts
26-Jun-19 20:14 35.978690 -115.537552 63 12599ft 322kts
26-Jun-19 20:15 36.009556 -115.443031 71 11785ft 294kts
26-Jun-19 20:16 36.029275 -115.350814 98 11032ft 284kts
26-Jun-19 20:17 36.022467 -115.257096 99 10059ft 281kts
26-Jun-19 20:18 36.015705 -115.162169 98 8613ft 283kts
26-Jun-19 20:19 36.009585 -115.069979 98 8054ft 250kts
26-Jun-19 20:20 36.022958 -114.991564 38 7303ft 259kts
26-Jun-19 20:21 36.089308 -114.952295 21 5933ft 270kts
26-Jun-19 20:22 36.154400 -114.923266 22 5453ft 249kts
26-Jun-19 20:23 36.220273 -114.911622 325 5449ft 257kts
26-Jun-19 20:24 36.262690 -114.978920 293 5442ft 243kts
26-Jun-19 20:25 36.263655 -115.048216 217 5323ft 207kts
26-Jun-19 20:26 36.219312 -115.082376 201 4992ft 183kts
26-Jun-19 20:27 36.177862 -115.107257 204 4246ft 156kts
26-Jun-19 20:28 36.141299 -115.128596 203 2961ft 148kts
26-Jun-19 20:29 36.108610 -115.147665 203 2321ft 120kts
26-Jun-19 20:30 36.085405 -115.160981 197 2135ft 40kts

Navigation Log

Ident Type
Flight plan parsing failed, navigation log unavailable